MST,Max TemperatureF,Mean TemperatureF,Min TemperatureF,Max Dew PointF,MeanDew PointF,Min DewpointF,Max Humidity, Mean Humidity, Min Humidity, Max Sea Level PressureIn, Mean Sea Level PressureIn, Min Sea Level PressureIn, Max VisibilityMiles, Mean VisibilityMiles, Min VisibilityMiles, Max Wind SpeedMPH, Mean Wind SpeedMPH, Max Gust SpeedMPH,PrecipitationIn, CloudCover, Events, WindDirDegrees
2013-12-1,41,40,39,31,30,29,76,69,53,30.45,30.38,30.33,10,10,9,7,4,,0.00,8,,162
2013-12-2,45,40,36,31,30,29,79,68,57,30.32,30.09,29.85,10,10,6,6,3,,0.00,5,,173
2013-12-3,55,44,33,34,30,27,89,67,23,29.81,29.61,29.31,10,6,1,22,3,40,0.00,0,,207
2013-12-4,55,40,24,31,19,4,85,61,28,30.03,29.73,29.32,10,8,0,24,13,37,0.08,4,Fog-Rain-Snow,303
2013-12-5,32,26,19,13,9,2,68,49,24,30.07,30.01,29.96,10,9,4,7,2,,0.00,0,,321
2013-12-6,33,25,17,15,8,4,62,46,25,30.20,30.14,30.07,10,9,4,9,5,,0.00,0,,28
2013-12-7,37,32,26,29,22,13,89,71,32,30.07,29.81,29.67,10,6,0,17,3,25,0.08,6,Fog-Rain-Snow,291
2013-12-8,30,24,19,16,9,4,57,46,25,30.18,30.06,29.84,10,10,5,9,7,22,0.00,1,,291
2013-12-9,30,22,14,8,4,0,60,45,20,30.61,30.45,30.19,10,10,7,13,4,,0.00,0,,351
2013-12-10,30,21,12,11,7,4,67,52,23,30.61,30.50,30.37,10,9,2,9,4,,0.00,0,,96
2013-12-11,33,24,15,14,11,8,71,56,32,30.62,30.56,30.47,10,8,2,7,1,,0.00,0,,51
2013-12-12,33,26,19,16,13,10,69,57,37,30.61,30.47,30.28,10,8,2,8,1,,0.00,2,,105
2013-12-13,34,28,21,19,17,12,78,63,43,30.34,30.23,30.14,10,8,2,6,1,,0.00,1,,9
2013-12-14,41,32,23,24,20,17,81,64,35,30.56,30.49,30.35,10,8,4,6,2,,0.00,0,,78
2013-12-15,43,34,24,23,21,18,81,63,40,30.57,30.51,30.44,10,9,2,5,2,,0.00,0,,274
2013-12-16,43,34,26,25,23,21,81,65,42,30.55,30.49,30.43,10,9,6,5,1,,0.00,0,,321
2013-12-17,43,34,26,26,24,21,82,69,42,30.56,30.47,30.35,10,7,1,6,1,,0.00,0,,3
2013-12-18,41,34,28,27,25,23,82,69,45,30.32,30.16,29.87,10,8,2,5,1,,0.00,0,,359
2013-12-19,44,36,28,29,27,25,85,69,45,29.83,29.73,29.67,10,8,3,6,2,,0.00,4,,237
2013-12-20,46,40,34,32,29,17,82,68,34,29.80,29.75,29.71,10,9,5,8,2,18,0.01,5,Rain,255
2013-12-21,50,42,33,24,21,17,64,45,26,29.97,29.77,29.67,10,10,10,12,4,24,0.00,2,,306
2013-12-22,46,40,33,20,18,17,56,43,25,30.35,30.18,29.99,10,9,5,10,5,17,0.00,0,,311
2013-12-23,46,36,27,25,22,19,69,54,27,30.51,30.44,30.35,10,9,3,5,2,,0.00,0,,73
2013-12-24,48,38,28,25,24,21,72,57,31,30.41,30.36,30.27,10,9,2,5,2,,0.00,0,,258
2013-12-25,46,37,28,24,19,15,69,49,21,30.51,30.45,30.40,10,9,2,6,3,,0.00,0,,339
2013-12-26,44,34,25,20,18,16,69,51,25,30.51,30.45,30.39,10,8,2,7,1,,0.00,0,,16
2013-12-27,45,36,27,22,19,17,69,53,22,30.48,30.38,30.27,10,8,2,6,1,,0.00,0,,313
2013-12-28,39,34,28,23,21,19,69,57,37,30.24,30.12,30.04,10,9,3,4,1,,0.00,0,,221
2013-12-29,46,36,26,21,17,14,75,48,18,30.29,30.23,30.11,10,9,4,5,2,,0.00,0,,243
2013-12-30,46,36,26,19,16,14,63,48,19,30.42,30.34,30.27,10,9,2,8,2,,0.00,0,,243
2013-12-31,46,36,27,19,18,15,64,47,21,30.35,30.27,30.20,10,8,2,6,2,,0.00,1,,280